createdAt,value
2023-04-08T00:04:19.938Z,5.5
2023-04-08T00:09:30.247Z,5.5
2023-04-08T00:15:02.525Z,5.4
2023-04-08T00:20:53.501Z,5.4
2023-04-08T00:32:05.027Z,5.5
2023-04-08T00:37:38.914Z,5.5
2023-04-08T00:42:56.616Z,5.4
2023-04-08T00:48:35.737Z,5.4
2023-04-08T00:53:55.372Z,5.5
2023-04-08T00:59:39.028Z,5.4
2023-04-08T01:05:10.315Z,5.4
2023-04-08T01:10:43.842Z,5.4
2023-04-08T01:16:14.585Z,5.3
2023-04-08T01:22:02.956Z,5.3
2023-04-08T01:27:16.838Z,5.3
2023-04-08T01:33:00.561Z,5.3
2023-04-08T01:38:35.672Z,5.2
2023-04-08T01:44:05.752Z,5.3
2023-04-08T01:49:31.440Z,5.3
2023-04-08T01:55:07.070Z,5
2023-04-08T02:00:32.639Z,4.9
2023-04-08T02:06:08.933Z,5.2
2023-04-08T02:11:59.550Z,5
2023-04-08T02:17:28.216Z,4.9
2023-04-08T02:22:53.811Z,4.9
2023-04-08T02:28:21.950Z,4.9
2023-04-08T02:34:13.033Z,4.8
2023-04-08T02:39:21.046Z,4.8
2023-04-08T02:45:19.692Z,4.8
2023-04-08T02:50:37.004Z,4.7
2023-04-08T03:01:30.651Z,4.7
2023-04-08T03:07:20.731Z,4.7
2023-04-08T03:12:39.690Z,4.8
2023-04-08T03:18:21.806Z,4.8
2023-04-08T03:23:51.238Z,4.7
2023-04-08T03:29:33.742Z,4.7
2023-04-08T03:35:02.699Z,4.8
2023-04-08T03:40:23.814Z,4.8
2023-04-08T03:45:57.524Z,4.8
2023-04-08T03:57:18.763Z,4.7
2023-04-08T04:02:55.692Z,4.8
2023-04-08T04:08:10.637Z,4.9
2023-04-08T04:13:42.086Z,4.9
2023-04-08T04:19:32.221Z,4.9
2023-04-08T04:24:47.529Z,4.8
2023-04-08T04:30:33.364Z,4.7
2023-04-08T04:47:01.786Z,4.9
2023-04-08T04:52:27.489Z,4.9
2023-04-08T04:58:14.500Z,4.9
2023-04-08T05:03:56.779Z,4.8
2023-04-08T05:09:30.544Z,4.9
2023-04-08T05:15:03.493Z,4.9
2023-04-08T05:20:11.644Z,4.9
2023-04-08T05:25:50.494Z,4.8
2023-04-08T05:36:53.475Z,4.9
2023-04-08T05:42:26.103Z,5
2023-04-08T05:48:11.133Z,5
2023-04-08T05:53:52.815Z,5.1
2023-04-08T05:59:14.340Z,5.1
2023-04-08T06:04:35.240Z,5.2
2023-04-08T06:10:14.978Z,5.3
2023-04-08T06:15:41.435Z,5.4
2023-04-08T06:21:29.975Z,5.5
2023-04-08T06:26:53.442Z,5.5
2023-04-08T06:32:19.155Z,5.8
2023-04-08T06:38:15.778Z,6.1
2023-04-08T06:43:46.011Z,6.3
2023-04-08T06:49:15.183Z,6.3
2023-04-08T06:54:59.614Z,6.4
2023-04-08T07:00:32.702Z,6.5
2023-04-08T07:11:18.311Z,6.8
2023-04-08T07:16:49.181Z,7
2023-04-08T07:22:20.671Z,7.4
2023-04-08T07:28:18.064Z,7.3
2023-04-08T07:33:52.307Z,7.9
2023-04-08T07:39:16.802Z,8
2023-04-08T07:44:37.139Z,8.2
2023-04-08T07:50:17.273Z,8.1
2023-04-08T08:07:11.062Z,8.4
2023-04-08T08:12:34.493Z,9
2023-04-08T08:18:17.056Z,9.2
2023-04-08T08:23:47.065Z,9.8
2023-04-08T08:29:14.213Z,9.6
2023-04-08T08:35:12.034Z,9.4
2023-04-08T08:40:37.015Z,9.6
2023-04-08T08:57:13.698Z,9.4
2023-04-08T09:03:05.108Z,9.5
2023-04-08T09:08:39.072Z,9.5
2023-04-08T09:14:11.960Z,9.4
2023-04-08T09:19:51.879Z,9.4
2023-04-08T09:25:19.987Z,9.6
2023-04-08T09:31:02.739Z,9.6
2023-04-08T09:36:35.240Z,9.5
2023-04-08T09:42:10.797Z,9.5
2023-04-08T09:47:30.702Z,9.8
2023-04-08T09:53:26.832Z,10
2023-04-08T09:58:37.505Z,10
2023-04-08T10:04:26.148Z,10.1
2023-04-08T10:10:00.233Z,9.8
2023-04-08T10:15:27.270Z,9.8
2023-04-08T10:21:01.302Z,9.9
2023-04-08T10:26:54.198Z,9.9
2023-04-08T10:32:25.914Z,10
2023-04-08T10:37:51.420Z,9.9
2023-04-08T10:43:37.766Z,9.7
2023-04-08T10:49:11.212Z,9.9
2023-04-08T10:54:31.188Z,9.7
2023-04-08T11:00:03.932Z,9.8
2023-04-08T11:05:44.031Z,9.7
2023-04-08T11:11:32.410Z,10.1
2023-04-08T11:16:59.313Z,10.2
2023-04-08T11:22:31.108Z,10.4
2023-04-08T11:28:21.012Z,10.5
2023-04-08T11:33:44.753Z,10.8
2023-04-08T11:39:15.298Z,10.7
2023-04-08T11:44:53.785Z,10.7
2023-04-08T11:50:40.580Z,10.7
2023-04-08T12:07:25.114Z,11.1
2023-04-08T12:13:06.352Z,11
2023-04-08T12:18:36.842Z,11
2023-04-08T12:24:01.674Z,11.2
2023-04-08T12:29:47.413Z,11
2023-04-08T12:35:12.152Z,11.1
2023-04-08T12:40:39.788Z,11.4
2023-04-08T12:46:08.434Z,11.3
2023-04-08T12:52:01.878Z,11.5
2023-04-08T12:57:44.897Z,11
2023-04-08T13:02:57.937Z,11
2023-04-08T13:14:29.861Z,11
2023-04-08T13:19:46.618Z,11.3
2023-04-08T13:25:15.597Z,11.1
2023-04-08T13:42:00.222Z,11.7
2023-04-08T13:47:40.796Z,11.7
2023-04-08T13:53:21.023Z,11.8
2023-04-08T13:58:57.036Z,12.1
2023-04-08T14:10:06.547Z,12.4
2023-04-08T14:15:39.656Z,12
2023-04-08T14:26:46.669Z,11.6
2023-04-08T14:32:31.851Z,12.3
2023-04-08T14:38:01.300Z,12.2
2023-04-08T14:43:40.393Z,12.6
2023-04-08T14:49:34.130Z,12.3
2023-04-08T14:54:53.158Z,12.4
2023-04-08T15:00:36.441Z,12.2
2023-04-08T15:06:13.517Z,12.3
2023-04-08T15:12:01.404Z,12.7
2023-04-08T15:17:20.945Z,13
2023-04-08T15:22:53.570Z,12.7
2023-04-08T15:28:32.600Z,12.2
2023-04-08T15:34:10.880Z,13
2023-04-08T15:39:46.297Z,12.2
2023-04-08T15:45:23.696Z,12.3
2023-04-08T16:02:20.083Z,11.8
2023-04-08T16:07:37.010Z,11.4
2023-04-08T16:13:26.068Z,11.3
2023-04-08T16:19:02.358Z,11.4
2023-04-08T16:24:22.892Z,11.9
2023-04-08T16:30:00.325Z,11.8
2023-04-08T16:41:07.378Z,12.1
2023-04-08T16:46:51.622Z,11.2
2023-04-08T16:52:35.193Z,11.7
2023-04-08T16:58:21.353Z,11.8
2023-04-08T17:03:48.672Z,11.6
2023-04-08T17:09:31.912Z,11.8
2023-04-08T17:15:08.228Z,12.3
2023-04-08T17:20:23.967Z,11.9
2023-04-08T17:26:00.625Z,12
2023-04-08T17:37:11.017Z,11.5
2023-04-08T17:42:37.241Z,11
2023-04-08T17:48:19.951Z,10.8
2023-04-08T17:54:10.515Z,10.2
2023-04-08T17:59:42.126Z,9.9
2023-04-08T18:05:06.421Z,9.9
2023-04-08T18:10:43.402Z,9.9
2023-04-08T18:21:44.825Z,10.1
2023-04-08T18:27:36.921Z,9.9
2023-04-08T18:33:00.607Z,9.9
2023-04-08T18:38:35.569Z,10
2023-04-08T18:43:55.464Z,9.9
2023-04-08T18:49:30.621Z,10.1
2023-04-08T18:55:06.484Z,10.1
2023-04-08T19:12:11.820Z,9.7
2023-04-08T19:17:22.167Z,9.3
2023-04-08T19:23:10.329Z,9.2
2023-04-08T19:28:29.720Z,9.2
2023-04-08T19:34:16.906Z,8.9
2023-04-08T19:39:43.428Z,8.7
2023-04-08T19:45:24.978Z,8.6
2023-04-08T19:50:43.211Z,8.4
2023-04-08T19:56:17.580Z,8.2
2023-04-08T20:02:16.387Z,7.9
2023-04-08T20:07:48.061Z,8
2023-04-08T20:13:22.050Z,7.8
2023-04-08T20:18:50.202Z,7.8
2023-04-08T20:24:18.526Z,7.9
2023-04-08T20:29:41.716Z,7.6
2023-04-08T20:35:19.087Z,7.4
2023-04-08T20:51:59.507Z,7.5
2023-04-08T20:57:37.555Z,7.6
2023-04-08T21:03:05.840Z,7.5
2023-04-08T21:08:32.247Z,7.4
2023-04-08T21:14:09.100Z,7.6
2023-04-08T21:19:59.072Z,7.5
2023-04-08T21:25:11.778Z,7.6
2023-04-08T21:30:45.435Z,7.7
2023-04-08T21:42:06.454Z,7.7
2023-04-08T21:47:42.859Z,7.6
2023-04-08T21:53:23.336Z,7.6
2023-04-08T21:58:44.181Z,7.5
2023-04-08T22:04:06.327Z,7.5
2023-04-08T22:09:42.458Z,7.5
2023-04-08T22:15:36.578Z,7.5
2023-04-08T22:26:19.983Z,7.5
2023-04-08T22:32:10.113Z,7.5
2023-04-08T22:37:47.014Z,7.2
2023-04-08T22:42:57.811Z,7.1
2023-04-08T22:48:29.243Z,7.1
2023-04-08T22:54:02.619Z,6.9
2023-04-08T22:59:49.306Z,7
2023-04-08T23:05:30.809Z,7
2023-04-08T23:22:09.125Z,6.8
2023-04-08T23:27:40.765Z,6.9
2023-04-08T23:33:18.387Z,7.2
2023-04-08T23:38:44.032Z,7.3
2023-04-08T23:44:00.643Z,7.1
2023-04-08T23:49:39.991Z,7.1
2023-04-08T23:55:27.701Z,7
